Zielona Gora-Babimost Airport Babimost PL
ICAO: EPZG
IATA: IEG
Category: Medium
Scheduled Services: Yes

Elevation: 194 ft
TransAlt. 6500 ft.

Airport Communications:
TWR:118.75

EPZG Zoom In..

If you have problems with the map follow the link
https://www.worldairports.se/pages/airport.php?
ICAO=EPZG

Runways:

(A) RW 06 length 8202 ft width 197 ft
---- / hdg 62

(B) RW 24 length 8202 ft width 197 ft
---- / hdg 242

Location; EPZG
Day. 14 / Time. 09.30 Zulu
* QNH: 1011
* Temperature: 05° c. 41°f.
* Wind from: 160° Speed 05 kn.
Dewpoint: 03° c.
Visibility: 5000 m.
No significant clouds are observed below 5000 ft.
Conditions: Mist.

EPZG 140930Z 16005KT 5000 BR NSC 05/03 Q1011


Wind From 160°
Speed 05 kn.

 
 
jpsmedia worldairports.se 2019   terms of use